Time;durP1;ratioP1;P1;durP2;ratioP2;P2;SDS_P1;SDS_P2;PMS_P1;PMS_P2;Temp;Humidity;BMP_temperature;BMP_pressure;BME280_temperature;BME280_humidity;BME280_pressure;Samples;Min_cycle;Max_cycle;Signal;HPM_P1;HPM_P2
2022/02/07 00:02:21;;;;;;;4.60;0.70;;;;;;;7.61;60.82;99125.66;4977367;28;97076;-75
2022/02/07 00:04:47;;;;;;;2.55;0.38;;;;;;;7.45;60.80;99114.19;4979246;28;96759;-76
2022/02/07 00:07:17;;;;;;;3.60;0.68;;;;;;;7.44;61.77;99132.66;4975634;28;98339;-77
2022/02/07 00:09:44;;;;;;;3.67;0.65;;;;;;;7.74;60.93;99130.34;4971477;28;99285;-77
2022/02/07 00:12:12;;;;;;;1.55;0.40;;;;;;;7.19;61.32;99125.97;4977500;28;96702;-76
2022/02/07 00:14:38;;;;;;;0.55;0.25;;;;;;;7.27;61.36;99140.53;4969774;28;97101;-77
2022/02/07 00:17:07;;;;;;;2.50;0.40;;;;;;;7.10;60.71;99136.03;4981119;28;98867;-75
2022/02/07 00:19:36;;;;;;;2.42;0.40;;;;;;;7.09;58.99;99124.69;4988183;28;97951;-77
2022/02/07 00:22:04;;;;;;;0.38;0.10;;;;;;;7.41;58.33;99123.19;4979678;28;97351;-76
2022/02/07 00:24:31;;;;;;;0.60;0.35;;;;;;;7.18;58.52;99131.28;4983329;28;97123;-77
2022/02/07 00:26:57;;;;;;;0.80;0.25;;;;;;;7.68;58.23;99146.41;4973387;28;98122;-76
2022/02/07 00:29:25;;;;;;;4.22;0.50;;;;;;;7.51;57.79;99141.97;4975464;28;99338;-76
2022/02/07 00:31:52;;;;;;;1.77;0.32;;;;;;;7.45;58.13;99150.16;4975364;28;97716;-77
2022/02/07 00:34:20;;;;;;;2.35;0.30;;;;;;;7.75;57.32;99147.78;4973128;28;97036;-76
2022/02/07 00:36:47;;;;;;;1.65;0.32;;;;;;;7.72;57.86;99167.22;4973496;28;97604;-75
2022/02/07 00:39:21;;;;;;;1.95;0.40;;;;;;;7.42;57.93;99172.16;4975382;28;99650;-77
2022/02/07 00:41:52;;;;;;;1.75;0.30;;;;;;;7.43;57.97;99176.50;4974741;28;97595;-78
2022/02/07 00:44:20;;;;;;;1.60;0.30;;;;;;;7.39;58.22;99192.47;4970856;28;96700;-76
2022/02/07 00:46:51;;;;;;;4.00;0.70;;;;;;;7.17;58.50;99201.34;4974533;28;99226;-78
2022/02/07 00:49:18;;;;;;;2.28;0.40;;;;;;;7.52;57.59;99198.88;4971077;28;99296;-74
2022/02/07 00:51:51;;;;;;;1.38;0.32;;;;;;;7.03;57.48;99211.63;4975941;28;97748;-76
2022/02/07 00:54:18;;;;;;;2.70;0.40;;;;;;;6.53;58.45;99210.41;4972429;28;97004;-76
2022/02/07 00:56:44;;;;;;;1.35;0.20;;;;;;;6.50;59.36;99226.31;4973389;28;99188;-76
2022/02/07 00:59:10;;;;;;;0.70;0.30;;;;;;;6.12;59.92;99225.25;4974936;28;99222;-75
2022/02/07 01:01:37;;;;;;;2.17;0.30;;;;;;;6.61;59.47;99243.28;4972762;28;96802;-75
2022/02/07 01:04:04;;;;;;;1.55;0.30;;;;;;;6.44;59.47;99237.88;4974351;28;98365;-75
2022/02/07 01:06:31;;;;;;;1.85;0.50;;;;;;;7.10;57.14;99244.59;4980907;28;98941;-76
2022/02/07 01:09:11;;;;;;;1.15;0.45;;;;;;;7.47;55.71;99251.66;4977011;28;98015;-75
2022/02/07 01:11:54;;;;;;;1.85;0.52;;;;;;;7.18;56.00;99258.22;4974246;28;96862;-75
2022/02/07 01:14:32;;;;;;;3.13;0.60;;;;;;;7.03;56.80;99263.31;4976132;28;98228;-76
2022/02/07 01:17:50;;;;;;;4.22;0.40;;;;;;;7.14;56.19;99266.34;4975088;28;100944;-76
2022/02/07 01:20:31;;;;;;;4.75;0.63;;;;;;;7.15;55.86;99260.97;4979694;28;99209;-74
2022/02/07 01:23:19;;;;;;;3.72;0.40;;;;;;;6.88;56.37;99270.13;4975651;28;97602;-76
2022/02/07 01:48:10;;;;;;;4.72;0.70;;;;;;;7.02;56.38;99317.59;4975098;28;96904;-77
2022/02/07 01:51:00;;;;;;;4.10;0.63;;;;;;;6.59;57.25;99321.22;4971449;28;102175;-76
2022/02/07 01:53:53;;;;;;;9.35;0.73;;;;;;;6.21;58.75;99329.81;4974195;28;97186;-79
2022/02/07 01:56:26;;;;;;;2.83;0.60;;;;;;;6.18;58.75;99346.50;4980488;28;97069;-81
2022/02/07 01:59:00;;;;;;;5.05;0.63;;;;;;;6.52;58.06;99348.63;4983596;28;96748;-81
2022/02/07 02:01:28;;;;;;;4.75;0.70;;;;;;;6.56;57.88;99350.25;4980258;28;100165;-80
2022/02/07 02:03:58;;;;;;;3.33;0.65;;;;;;;6.19;58.89;99357.88;4981714;28;101221;-81
2022/02/07 02:06:28;;;;;;;3.10;0.47;;;;;;;6.26;58.62;99356.72;4982428;28;96808;-81
2022/02/07 02:09:05;;;;;;;2.55;0.60;;;;;;;6.49;58.44;99364.53;4981110;28;97175;-81
2022/02/07 02:12:37;;;;;;;;;;;;;;;;;;;;;
2022/02/07 02:46:51;;;;;;;;;;;;;;;;;;;;;
2022/02/07 04:28:49;;;;;;;6.05;1.35;;;;;;;6.48;61.03;99793.19;4544075;22;97952;-80
2022/02/07 04:46:34;;;;;;;3.97;0.70;;;;;;;6.36;61.43;99831.22;5802565;22;100015;-79
2022/02/07 05:53:43;;;;;;;7.30;1.23;;;;;;;6.20;59.74;100023.25;5542972;22;99118;-80
2022/02/07 05:56:10;;;;;;;4.85;1.00;;;;;;;6.36;59.25;100038.50;4970003;28;96833;-81
2022/02/07 05:58:37;;;;;;;9.32;0.88;;;;;;;6.08;60.78;100039.34;4969057;28;97756;-80
2022/02/07 06:01:05;;;;;;;8.90;1.13;;;;;;;6.79;58.43;100047.69;4962984;28;99387;-80
2022/02/07 06:03:36;;;;;;;9.45;1.20;;;;;;;6.43;59.22;100054.06;4939020;28;96719;-79
2022/02/07 06:06:07;;;;;;;12.57;1.60;;;;;;;6.04;60.17;100071.81;4941579;28;96775;-80
2022/02/07 06:08:47;;;;;;;;;;;;;;;;;;;;;
2022/02/07 06:12:04;;;;;;;;;;;;;;;;;;;;;
2022/02/07 06:21:55;;;;;;;16.88;1.58;;;;;;;6.44;58.46;100101.22;4854513;28;98716;-81
2022/02/07 06:25:12;;;;;;;7.70;0.80;;;;;;;6.41;58.53;100124.97;4935752;28;100523;-80
2022/02/07 06:31:09;;;;;;;8.57;1.52;;;;;;;6.50;59.15;100142.22;4791447;29;100219;-80
2022/02/07 06:33:35;;;;;;;10.68;1.05;;;;;;;6.82;58.18;100147.41;4833189;28;99030;-77
2022/02/07 06:36:02;;;;;;;16.33;1.20;;;;;;;6.94;57.31;100146.16;4935406;28;98631;-78
2022/02/07 06:38:29;;;;;;;6.90;1.42;;;;;;;6.32;58.67;100148.81;4938999;28;97060;-78
2022/02/07 06:40:55;;;;;;;9.07;1.40;;;;;;;6.57;58.81;100157.72;4937541;28;96914;-77
2022/02/07 06:43:23;;;;;;;11.23;1.15;;;;;;;6.65;58.27;100161.00;4940501;28;101226;-78
2022/02/07 06:45:50;;;;;;;14.45;2.45;;;;;;;6.82;57.97;100173.66;4937588;28;99010;-79
2022/02/07 06:48:18;;;;;;;7.60;1.50;;;;;;;7.06;57.06;100169.44;4949969;28;96696;-80
2022/02/07 06:56:27;;;;;;;13.50;1.38;;;;;;;5.93;60.05;100193.56;5396303;22;99848;-81
2022/02/07 06:58:54;;;;;;;10.50;1.17;;;;;;;6.47;59.31;100189.53;5000252;28;95950;-79
2022/02/07 07:01:22;;;;;;;16.92;1.60;;;;;;;6.57;58.80;100202.34;4994857;28;96026;-79
2022/02/07 07:03:54;;;;;;;7.60;1.20;;;;;;;6.88;58.00;100199.75;4971127;28;100435;-79
2022/02/07 07:09:13;;;;;;;10.05;1.35;;;;;;;6.86;57.60;100216.44;4978573;28;96063;-82
2022/02/07 07:11:41;;;;;;;7.80;1.35;;;;;;;6.90;57.48;100223.31;4976601;28;96456;-80
2022/02/07 07:14:16;;;;;;;8.48;1.17;;;;;;;7.17;56.90;100235.66;4965765;28;98818;-78
2022/02/07 07:19:35;;;;;;;8.70;2.00;;;;;;;6.20;59.21;100246.22;4986955;28;96025;-80
2022/02/07 07:22:14;;;;;;;10.15;1.83;;;;;;;6.83;57.61;100256.75;4973484;28;96341;-81
2022/02/07 07:25:16;;;;;;;;;;;;;;;;;;;;;
2022/02/07 07:27:57;;;;;;;9.88;1.65;;;;;;;6.68;58.00;100270.34;4967154;28;125522;-80
2022/02/07 07:30:28;;;;;;;8.93;1.60;;;;;;;6.82;58.10;100283.09;4957530;28;96732;-78
2022/02/07 07:33:00;;;;;;;10.30;1.60;;;;;;;7.06;57.28;100292.91;4946924;28;98573;-78
2022/02/07 07:35:29;;;;;;;5.25;1.08;;;;;;;6.95;57.34;100300.25;4955402;28;99400;-78
2022/02/07 07:37:56;;;;;;;16.30;1.27;;;;;;;6.89;57.76;100310.91;4955957;28;98242;-78
2022/02/07 07:40:22;;;;;;;15.25;1.83;;;;;;;7.54;56.02;100309.88;4963655;28;97422;-78
2022/02/07 07:42:53;;;;;;;10.40;1.60;;;;;;;7.41;55.93;100307.66;4969942;28;96775;-75
2022/02/07 07:45:28;;;;;;;10.18;2.70;;;;;;;6.85;57.66;100304.88;4969449;28;100799;-80
2022/02/07 07:54:23;;;;;;;15.13;1.83;;;;;;;6.51;58.29;100323.28;4949080;28;99469;-79
2022/02/07 08:02:23;;;;;;;11.40;1.83;;;;;;;7.46;56.17;100346.06;4950498;28;96792;-79
2022/02/07 08:04:50;;;;;;;11.60;1.92;;;;;;;7.51;55.94;100356.44;4957623;28;97141;-78
2022/02/07 08:07:20;;;;;;;10.48;1.48;;;;;;;7.15;56.37;100350.47;4957669;28;99623;-80
2022/02/07 08:10:27;;;;;;;11.43;1.67;;;;;;;7.56;55.49;100357.16;4959126;28;99159;-79
2022/02/07 08:12:54;;;;;;;11.82;1.55;;;;;;;7.44;55.87;100357.50;4958492;28;96714;-79
2022/02/07 08:15:21;;;;;;;16.55;2.28;;;;;;;7.64;55.97;100381.47;4959059;28;96739;-79
2022/02/07 08:17:47;;;;;;;8.65;1.48;;;;;;;7.44;56.25;100379.41;4955611;28;97745;-79
2022/02/07 08:20:14;;;;;;;12.57;1.70;;;;;;;7.52;56.12;100377.44;4959684;28;98927;-79
2022/02/07 08:22:41;;;;;;;12.18;1.92;;;;;;;7.70;55.11;100393.56;4955601;28;96939;-78
2022/02/07 08:25:10;;;;;;;10.93;1.75;;;;;;;8.06;54.96;100404.78;4951797;28;96808;-80
2022/02/07 08:27:38;;;;;;;15.13;1.80;;;;;;;7.71;56.02;100408.44;4961035;28;98081;-78
2022/02/07 08:30:05;;;;;;;11.73;1.60;;;;;;;6.83;57.96;100424.84;4963774;28;101161;-77
2022/02/07 08:32:32;;;;;;;10.07;1.23;;;;;;;7.05;57.45;100422.53;4960614;28;96684;-79
2022/02/07 08:35:01;;;;;;;5.78;1.50;;;;;;;7.58;56.79;100437.72;4961095;28;97357;-80
2022/02/07 08:37:28;;;;;;;8.70;1.45;;;;;;;7.16;57.40;100431.84;4963491;28;97376;-78
2022/02/07 08:39:54;;;;;;;15.48;1.30;;;;;;;7.31;56.91;100430.59;4959702;28;99056;-81
2022/02/07 08:42:22;;;;;;;8.65;1.30;;;;;;;7.58;56.44;100434.22;4952593;28;96957;-79
2022/02/07 08:44:49;;;;;;;14.88;1.83;;;;;;;8.16;54.54;100437.78;4958513;28;97191;-80
2022/02/07 08:47:17;;;;;;;14.07;1.80;;;;;;;8.04;54.51;100446.91;4957731;28;101689;-83
2022/02/07 08:49:44;;;;;;;11.27;1.50;;;;;;;7.82;55.52;100427.38;4970051;28;97901;-82
2022/02/07 08:52:19;;;;;;;7.07;1.30;;;;;;;7.68;55.70;100461.97;4961021;28;96833;-80
2022/02/07 08:54:47;;;;;;;9.07;1.10;;;;;;;7.99;54.86;100456.72;4987103;28;96439;-79
2022/02/07 08:57:20;;;;;;;11.15;1.35;;;;;;;7.94;55.15;100462.09;4955152;28;97526;-81
2022/02/07 09:00:03;;;;;;;10.38;1.50;;;;;;;7.50;56.16;100473.88;4953491;28;99390;-79
2022/02/07 09:02:55;;;;;;;10.48;1.60;;;;;;;7.91;55.45;100477.13;4949423;28;96921;-79
2022/02/07 09:05:37;;;;;;;14.20;1.55;;;;;;;8.30;54.16;100464.53;4950804;28;97294;-80
2022/02/07 09:08:19;;;;;;;7.85;1.27;;;;;;;7.56;55.92;100478.97;4953640;28;100712;-81
2022/02/07 09:10:47;;;;;;;13.05;1.60;;;;;;;8.27;54.36;100483.91;4955701;28;97698;-78
2022/02/07 09:13:14;;;;;;;10.27;1.85;;;;;;;8.51;53.67;100486.75;4955230;28;97215;-79
2022/02/07 09:15:54;;;;;;;8.13;1.48;;;;;;;8.17;54.80;100487.75;4952807;28;96947;-80
2022/02/07 09:18:21;;;;;;;9.05;1.52;;;;;;;8.51;53.51;100485.00;4955357;28;101059;-79
2022/02/07 09:20:49;;;;;;;7.95;2.00;;;;;;;8.69;53.00;100512.50;4950775;28;98827;-80
2022/02/07 09:23:16;;;;;;;11.70;1.40;;;;;;;8.90;52.28;100503.94;4953728;28;97276;-79
2022/02/07 09:25:42;;;;;;;15.90;2.42;;;;;;;8.51;53.36;100499.91;4958033;28;96925;-79
2022/02/07 09:28:09;;;;;;;8.77;1.50;;;;;;;8.12;54.30;100510.72;4957433;28;98287;-79
2022/02/07 09:30:35;;;;;;;7.40;1.20;;;;;;;7.78;54.58;100495.03;4954933;28;99487;-79
2022/02/07 09:33:03;;;;;;;17.77;1.88;;;;;;;8.50;53.77;100524.53;4956769;28;96820;-80
2022/02/07 09:35:31;;;;;;;10.60;1.27;;;;;;;8.50;53.77;100532.44;4955991;28;96825;-81
2022/02/07 09:37:58;;;;;;;8.55;1.83;;;;;;;9.08;51.66;100531.44;4959745;28;98857;-80
2022/02/07 09:40:26;;;;;;;12.82;1.45;;;;;;;8.92;51.89;100539.00;4962350;28;98797;-79
2022/02/07 09:42:57;;;;;;;10.15;1.27;;;;;;;8.66;52.47;100545.06;4975342;28;97280;-80
2022/02/07 09:45:31;;;;;;;14.63;1.80;;;;;;;8.30;53.50;100544.41;4976923;28;97253;-78
2022/02/07 09:47:58;;;;;;;10.27;2.47;;;;;;;8.37;53.89;100547.72;4980275;28;99303;-79
2022/02/07 09:50:27;;;;;;;16.27;1.85;;;;;;;8.22;53.84;100559.53;4979468;28;98367;-79
2022/02/07 09:52:55;;;;;;;13.07;2.00;;;;;;;8.31;53.55;100559.31;4979895;28;98058;-78
2022/02/07 09:55:22;;;;;;;8.85;1.45;;;;;;;8.58;52.78;100562.03;4975532;28;96800;-79
2022/02/07 09:57:52;;;;;;;18.13;2.20;;;;;;;8.37;52.73;100574.06;4979985;28;97743;-78
2022/02/07 10:00:20;;;;;;;11.95;1.90;;;;;;;8.84;51.60;100579.69;4969217;28;97742;-78
2022/02/07 10:02:51;;;;;;;13.25;1.80;;;;;;;8.84;51.88;100595.50;4977379;28;96952;-78
2022/02/07 10:05:25;;;;;;;15.10;2.15;;;;;;;9.07;51.12;100599.13;4958925;28;97883;-79
2022/02/07 10:08:02;;;;;;;13.80;2.10;;;;;;;9.15;51.36;100598.88;4962609;28;99517;-78
2022/02/07 10:10:35;;;;;;;13.18;2.55;;;;;;;9.81;49.48;100624.81;4959003;28;101639;-80
2022/02/07 10:13:19;;;;;;;11.90;2.33;;;;;;;9.72;49.06;100625.09;4956373;28;96802;-79
2022/02/07 10:15:51;;;;;;;11.50;1.70;;;;;;;9.11;50.41;100619.22;4960902;28;96763;-77
2022/02/07 10:18:33;;;;;;;10.75;1.73;;;;;;;8.80;51.02;100639.50;4955602;28;99319;-79
2022/02/07 10:21:45;;;;;;;21.73;2.00;;;;;;;9.29;50.32;100638.84;4954215;28;99888;-79
2022/02/07 10:37:15;;;;;;;12.93;1.67;;;;;;;8.92;50.13;100660.22;4959399;28;96934;-80
2022/02/07 10:39:37;;;;;;;17.35;2.00;;;;;;;9.42;48.38;100673.59;4949432;28;96956;-79
2022/02/07 10:42:31;;;;;;;19.80;2.40;;;;;;;9.78;47.70;100684.75;4952483;28;98954;-78
2022/02/07 10:45:02;;;;;;;22.02;2.58;;;;;;;9.72;47.97;100684.94;4951269;28;101664;-78
2022/02/07 10:47:38;;;;;;;15.77;2.10;;;;;;;9.26;48.68;100685.53;4956187;28;96730;-78
2022/02/07 10:50:08;;;;;;;17.97;3.13;;;;;;;9.76;47.87;100692.72;4958955;28;96919;-79
2022/02/07 10:52:48;;;;;;;15.68;2.72;;;;;;;9.81;46.73;100703.97;4946888;28;99051;-79
2022/02/07 10:55:24;;;;;;;20.05;2.97;;;;;;;9.42;47.25;100703.47;4946201;28;98248;-77
2022/02/07 10:57:52;;;;;;;19.02;2.70;;;;;;;10.19;46.17;100712.41;4959748;28;96718;-78
2022/02/07 11:00:24;;;;;;;23.13;2.50;;;;;;;9.66;47.21;100711.53;4958408;28;97008;-77
2022/02/07 11:03:00;;;;;;;15.38;2.53;;;;;;;9.53;47.38;100713.69;4956505;28;99110;-78
2022/02/07 11:05:29;;;;;;;16.80;2.75;;;;;;;9.89;46.52;100712.50;4957612;28;99709;-79
2022/02/07 11:08:07;;;;;;;23.08;3.55;;;;;;;9.58;46.72;100717.06;4958768;28;96911;-78
2022/02/07 11:11:00;;;;;;;24.20;2.95;;;;;;;9.47;46.56;100722.66;4957963;28;97587;-78
2022/02/07 11:16:30;;;;;;;22.13;3.00;;;;;;;9.75;45.88;100727.06;4882606;28;96951;-77
2022/02/07 11:19:06;;;;;;;24.58;3.40;;;;;;;8.73;47.37;100736.28;4934920;28;97178;-78
2022/02/07 11:21:39;;;;;;;20.95;2.65;;;;;;;9.27;46.36;100753.19;4953809;28;98202;-80
2022/02/07 11:24:29;;;;;;;20.98;2.88;;;;;;;9.26;45.97;100756.72;4956285;28;99273;-79
2022/02/07 11:27:36;;;;;;;23.35;2.58;;;;;;;9.81;45.08;100771.72;4951936;28;98841;-79
2022/02/07 11:30:07;;;;;;;18.55;2.60;;;;;;;9.18;46.47;100767.53;4954266;28;97093;-79
2022/02/07 11:32:54;;;;;;;15.18;2.50;;;;;;;9.62;45.36;100781.13;4951806;28;96814;-78
2022/02/07 11:35:22;;;;;;;;;;;;;;;9.29;45.83;100783.88;4957011;28;99237;-77
2022/02/07 11:38:10;;;;;;;20.08;2.42;;;;;;;9.70;45.29;100782.63;4951218;28;98954;-79
2022/02/07 11:40:39;;;;;;;22.85;3.25;;;;;;;9.52;45.07;100796.38;4952856;28;97120;-78
2022/02/07 11:43:13;;;;;;;15.98;2.97;;;;;;;9.75;44.54;100793.91;4954723;28;98970;-79
2022/02/07 11:45:54;;;;;;;25.13;3.33;;;;;;;9.97;44.13;100802.88;4952306;28;99310;-79
2022/02/07 11:48:29;;;;;;;15.18;2.40;;;;;;;9.92;45.04;100796.00;4957370;28;101209;-77
2022/02/07 11:50:58;;;;;;;24.00;2.37;;;;;;;9.34;44.96;100808.34;4955231;28;96898;-77
2022/02/07 11:54:11;;;;;;;24.85;2.60;;;;;;;9.22;45.00;100811.34;4959291;28;97949;-82
2022/02/07 11:57:17;;;;;;;24.33;3.33;;;;;;;9.76;44.22;100815.88;4956607;28;97879;-82
2022/02/07 12:00:08;;;;;;;;;;;;;;;;;;;;;
2022/02/07 12:02:36;;;;;;;26.20;3.58;;;;;;;9.78;43.87;100822.81;4946588;28;117332;-82
2022/02/07 12:05:08;;;;;;;34.58;3.25;;;;;;;10.13;42.97;100832.28;4959603;28;96828;-80
2022/02/07 12:08:21;;;;;;;23.05;3.72;;;;;;;9.72;43.79;100840.63;4959158;28;97783;-80
2022/02/07 12:11:21;;;;;;;21.95;3.72;;;;;;;9.74;46.47;100860.78;4954732;28;101600;-80
2022/02/07 12:13:52;;;;;;;20.55;2.75;;;;;;;9.66;48.67;100859.28;4957463;28;96945;-81
2022/02/07 12:16:58;;;;;;;;;;;;;;;;;;;;;
2022/02/07 12:19:47;;;;;;;17.73;2.25;;;;;;;9.79;46.90;100865.91;4894363;28;123771;-81
2022/02/07 12:22:18;;;;;;;19.90;3.30;;;;;;;9.86;45.91;100857.75;4921648;28;100744;-79
2022/02/07 12:25:11;;;;;;;22.30;3.47;;;;;;;9.41;45.70;100859.13;4958546;28;96817;-81
2022/02/07 12:31:42;;;;;;;19.00;3.08;;;;;;;9.16;44.44;100878.28;4899269;28;97614;-81
2022/02/07 12:34:38;;;;;;;25.60;3.05;;;;;;;9.24;44.27;100887.75;4939412;28;97881;-81
2022/02/07 12:37:35;;;;;;;24.40;4.80;;;;;;;8.98;44.91;100889.34;4961083;28;98382;-82
2022/02/07 12:40:41;;;;;;;23.42;3.13;;;;;;;9.54;43.15;100890.38;4898443;28;97641;-82
2022/02/07 12:43:13;;;;;;;30.52;3.40;;;;;;;9.45;43.37;100885.38;4870011;28;101483;-81
2022/02/07 12:46:05;;;;;;;31.30;3.03;;;;;;;9.42;43.31;100888.09;4908920;28;97661;-81
2022/02/07 12:48:49;;;;;;;20.98;3.15;;;;;;;9.63;43.75;100904.22;4976287;28;96701;-82
2022/02/07 12:51:52;;;;;;;;;;;;;;;;;;;;;
2022/02/07 12:58:06;;;;;;;;;;;;;;;;;;;;;
2022/02/07 13:04:39;;;;;;;20.67;4.10;;;;;;;9.71;41.49;100921.56;4914346;28;98089;-81
2022/02/07 13:07:21;;;;;;;24.83;3.85;;;;;;;10.22;41.10;100928.88;4795517;28;100047;-81
2022/02/07 13:10:13;;;;;;;32.20;3.58;;;;;;;10.10;40.49;100930.06;4955493;28;101343;-82
2022/02/07 13:13:21;;;;;;;23.90;3.38;;;;;;;10.05;41.00;100931.97;4967811;28;96865;-82
2022/02/07 13:15:51;;;;;;;33.40;5.13;;;;;;;10.94;40.47;100954.69;4969966;28;96789;-81
2022/02/07 13:21:44;;;;;;;24.15;4.07;;;;;;;10.06;40.13;100959.25;4960776;28;96731;-81
2022/02/07 13:24:31;;;;;;;19.75;3.28;;;;;;;10.06;39.50;100967.16;4965832;28;97651;-82
2022/02/07 13:27:00;;;;;;;;;;;;;;;10.32;40.09;100968.13;4964894;28;97620;-82
2022/02/07 13:29:31;;;;;;;24.27;4.25;;;;;;;10.07;40.50;100976.81;4960932;28;100096;-81
2022/02/07 13:31:59;;;;;;;21.75;3.47;;;;;;;9.97;40.22;100974.47;4976448;28;97644;-83
2022/02/07 13:34:28;;;;;;;20.88;3.17;;;;;;;9.52;40.54;100973.09;4973954;28;96711;-82
2022/02/07 13:37:06;;;;;;;31.00;4.22;;;;;;;9.83;39.78;100992.47;4978028;28;96639;-81
2022/02/07 13:39:51;;;;;;;23.13;3.25;;;;;;;9.79;39.50;100990.81;4973792;28;97193;-82
2022/02/07 13:45:38;;;;;;;25.50;2.78;;;;;;;10.15;38.29;100993.31;4999835;22;96039;-82
2022/02/07 13:48:09;;;;;;;14.63;2.83;;;;;;;10.40;38.76;101004.88;4977292;28;97091;-82
2022/02/07 13:50:45;;;;;;;22.83;2.60;;;;;;;9.86;38.57;101009.97;4965401;28;100181;-82
2022/02/07 13:53:13;;;;;;;20.65;2.90;;;;;;;9.67;39.39;101033.38;5091611;22;98091;-80
2022/02/07 13:55:48;;;;;;;19.27;2.55;;;;;;;8.57;43.88;101066.00;4972845;28;97139;-79
2022/02/07 13:58:19;;;;;;;19.25;2.40;;;;;;;7.71;51.31;101084.41;4969494;28;96641;-80
2022/02/07 14:01:21;;;;;;;13.98;2.47;;;;;;;8.09;50.66;101060.84;4975605;28;101385;-80
2022/02/07 14:03:58;;;;;;;20.55;2.90;;;;;;;8.42;47.99;101063.69;4951968;28;100036;-81
2022/02/07 14:06:30;;;;;;;14.45;2.65;;;;;;;8.36;47.79;101064.69;4949518;28;96512;-79
2022/02/07 14:09:12;;;;;;;16.85;2.97;;;;;;;8.67;47.08;101068.38;4940378;28;96768;-83
2022/02/07 14:11:57;;;;;;;16.63;2.30;;;;;;;9.01;46.86;101078.16;4950747;28;96956;-79
2022/02/07 14:14:31;;;;;;;17.85;2.50;;;;;;;9.39;45.60;101062.25;4960474;28;99670;-80
2022/02/07 14:17:17;;;;;;;14.02;2.58;;;;;;;10.41;44.48;101063.88;4956519;28;96631;-79
2022/02/07 14:19:59;;;;;;;18.63;2.67;;;;;;;10.85;43.01;101075.72;4954071;28;97700;-80
2022/02/07 14:25:44;;;;;;;17.45;3.13;;;;;;;10.24;44.41;101104.00;4930906;28;96873;-80
2022/02/07 14:28:19;;;;;;;23.50;3.95;;;;;;;9.04;47.16;101147.50;4952138;28;96659;-81
2022/02/07 14:30:47;;;;;;;24.02;3.72;;;;;;;8.88;48.01;101150.50;4956893;28;97722;-80
2022/02/07 14:33:22;;;;;;;17.23;2.95;;;;;;;8.50;49.52;101140.78;4953928;28;98503;-80
2022/02/07 14:35:54;;;;;;;12.77;2.70;;;;;;;8.65;49.09;101143.09;4954839;28;99876;-80
2022/02/07 14:38:26;;;;;;;18.67;3.33;;;;;;;8.55;48.39;101145.06;4958006;28;96005;-80
2022/02/07 14:47:50;;;;;;;18.83;2.40;;;;;;;8.91;47.65;101156.59;4875778;28;95961;-81
2022/02/07 14:50:39;;;;;;;;;;;;;;;;;;;;;
2022/02/07 14:56:22;;;;;;;16.27;2.78;;;;;;;8.99;46.29;101180.97;4883212;28;97518;-80
2022/02/07 14:59:23;;;;;;;28.13;3.50;;;;;;;9.76;44.97;101175.66;4877628;28;99651;-84
2022/02/07 15:01:57;;;;;;;20.23;3.40;;;;;;;10.21;43.87;101178.88;4879778;28;96815;-79
2022/02/07 15:07:50;;;;;;;19.48;2.55;;;;;;;10.16;43.59;101190.44;4861524;28;98746;-82
2022/02/07 15:10:57;;;;;;;;;;;;;;;;;;;;;
2022/02/07 15:47:21;;;;;;;17.15;2.20;;;;;;;9.46;45.42;101266.06;4801447;29;97586;-79
2022/02/07 15:50:12;;;;;;;;;;;;;;;;;;;;;
2022/02/07 15:53:05;;;;;;;;;;;;;;;;;;;;;
2022/02/07 15:56:02;;;;;;;23.58;2.53;;;;;;;8.68;46.58;101298.47;4913886;28;115718;-80
2022/02/07 16:02:30;;;;;;;;;;;;;;;;;;;;;
2022/02/07 16:17:56;;;;;;;23.05;3.00;;;;;;;8.87;46.67;101355.19;4856460;28;96862;-81
2022/02/07 16:20:53;;;;;;;22.15;3.33;;;;;;;9.29;46.03;101357.88;4869133;28;96872;-82
2022/02/07 16:23:56;;;;;;;24.17;3.40;;;;;;;8.75;46.58;101373.88;4875648;28;100501;-81
2022/02/07 16:26:53;;;;;;;21.92;2.85;;;;;;;8.93;46.54;101370.88;4952577;28;101162;-81
2022/02/07 16:29:25;;;;;;;19.52;3.15;;;;;;;8.66;46.21;101385.44;4958084;28;96539;-82
2022/02/07 16:31:52;;;;;;;17.77;2.58;;;;;;;8.34;46.92;101396.50;4954901;28;96537;-80
2022/02/07 16:34:22;;;;;;;27.52;2.85;;;;;;;8.43;46.88;101402.53;4945601;28;101294;-80
2022/02/07 16:37:00;;;;;;;16.60;2.78;;;;;;;8.25;46.62;101411.56;4946003;28;98721;-83
2022/02/07 16:40:24;;;;;;;;;;;;;;;;;;;;;
2022/02/07 16:43:17;;;;;;;20.13;3.47;;;;;;;8.12;45.88;101415.28;4944905;28;116683;-81
2022/02/07 16:46:13;;;;;;;20.90;3.05;;;;;;;8.65;45.03;101427.63;4946017;28;99306;-79
2022/02/07 16:48:41;;;;;;;12.13;2.60;;;;;;;8.93;43.99;101430.63;4940915;28;98824;-79
2022/02/07 16:51:19;;;;;;;23.40;2.78;;;;;;;9.03;43.83;101440.13;4947876;28;96835;-79
2022/02/07 16:54:18;;;;;;;19.05;3.17;;;;;;;9.10;43.13;101444.41;4944308;28;97534;-81
2022/02/07 16:56:58;;;;;;;22.65;3.55;;;;;;;9.10;43.64;101447.91;4940925;28;100798;-79
2022/02/07 17:00:04;;;;;;;14.00;2.63;;;;;;;9.35;43.70;101453.59;4943253;28;98002;-82
2022/02/07 17:20:03;;;;;;;;;;;;;;;;;;;;;
2022/02/07 17:22:55;;;;;;;;;;;;;;;;;;;;;
2022/02/07 17:25:42;;;;;;;22.58;2.75;;;;;;;8.76;46.46;101510.00;4951684;28;127109;-78
2022/02/07 17:34:45;;;;;;;26.92;3.42;;;;;;;8.48;47.76;101517.44;4851944;28;97035;-80
2022/02/07 17:37:33;;;;;;;22.77;3.15;;;;;;;8.42;48.15;101514.91;4896845;28;96867;-81
2022/02/07 17:40:51;;;;;;;;;;;;;;;;;;;;;
2022/02/07 17:44:24;;;;;;;;;;;;;;;;;;;;;
2022/02/07 17:52:57;;;;;;;25.73;3.53;;;;;;;7.91;50.18;101525.22;5041177;22;98257;-78
2022/02/07 17:56:20;;;;;;;22.77;3.10;;;;;;;8.59;48.40;101533.13;4981293;28;96722;-83
2022/02/07 17:59:00;;;;;;;27.67;3.97;;;;;;;8.39;49.22;101536.91;4921894;28;99495;-79
2022/02/07 18:02:08;;;;;;;;;;;;;;;;;;;;;
2022/02/07 18:04:39;;;;;;;16.63;3.08;;;;;;;8.09;49.77;101539.91;4971413;28;118818;-78
2022/02/07 18:07:07;;;;;;;23.42;3.38;;;;;;;8.06;50.11;101546.97;4966222;28;97084;-77
2022/02/07 18:09:35;;;;;;;24.88;3.33;;;;;;;7.70;50.56;101553.53;4958873;28;100983;-78
2022/02/07 18:13:01;;;;;;;;;;;;;;;;;;;;;
2022/02/07 18:16:22;;;;;;;21.77;2.78;;;;;;;8.16;49.90;101554.72;4957271;28;115289;-81
2022/02/07 18:25:28;;;;;;;;;;;;;;;;;;;;;
2022/02/07 18:28:46;;;;;;;20.58;2.80;;;;;;;8.16;49.80;101591.59;4889986;28;118267;-79
2022/02/07 18:31:19;;;;;;;26.67;3.38;;;;;;;7.94;49.98;101588.31;4893836;28;97061;-78
2022/02/07 18:37:36;;;;;;;;;;;;;;;;;;;;;
2022/02/07 18:40:10;;;;;;;26.70;3.25;;;;;;;7.82;50.38;101608.63;4943313;28;116299;-80
2022/02/07 18:42:37;;;;;;;20.38;3.35;;;;;;;8.00;50.13;101616.34;4953641;28;97028;-78
2022/02/07 18:49:30;;;;;;;;;;;;;;;;;;;;;
2022/02/07 18:52:19;;;;;;;22.73;3.42;;;;;;;8.12;49.91;101624.09;4951391;28;97100;-78
2022/02/07 18:54:51;;;;;;;27.15;3.05;;;;;;;8.04;50.04;101631.22;4954204;28;96781;-79
2022/02/07 18:57:47;;;;;;;18.55;2.53;;;;;;;7.80;50.71;101634.13;4948297;28;98788;-79
2022/02/07 19:00:17;;;;;;;27.50;3.27;;;;;;;7.58;51.22;101639.56;4943764;28;97646;-78
2022/02/07 19:02:53;;;;;;;21.40;3.10;;;;;;;7.64;51.15;101638.63;4939399;28;96809;-80
2022/02/07 19:12:28;;;;;;;23.40;2.90;;;;;;;7.42;51.85;101648.47;4892564;28;97398;-82
2022/02/07 19:14:55;;;;;;;22.85;3.25;;;;;;;7.92;50.87;101660.31;4831974;29;96895;-79
2022/02/07 19:17:27;;;;;;;27.02;3.00;;;;;;;7.93;50.38;101651.53;4865675;28;97471;-81
2022/02/07 19:20:02;;;;;;;22.30;3.45;;;;;;;8.06;50.06;101665.41;4903474;28;98775;-79
2022/02/07 19:22:35;;;;;;;28.30;3.33;;;;;;;7.96;50.30;101675.16;4947622;28;100240;-79
2022/02/07 19:25:10;;;;;;;21.70;3.53;;;;;;;8.05;49.89;101682.09;4948692;28;96724;-79
2022/02/07 19:27:53;;;;;;;21.80;3.53;;;;;;;7.70;50.93;101679.78;4945552;28;96582;-81
2022/02/07 19:30:43;;;;;;;20.85;2.80;;;;;;;8.11;50.05;101695.19;4941969;28;99234;-79
2022/02/07 19:36:18;;;;;;;22.42;3.40;;;;;;;7.73;50.56;101701.72;4922985;28;98631;-81
2022/02/07 19:38:45;;;;;;;17.00;2.80;;;;;;;7.18;51.77;101714.38;4955319;28;96910;-78
2022/02/07 19:41:54;;;;;;;;;;;;;;;;;;;;;
2022/02/07 19:44:27;;;;;;;27.60;3.55;;;;;;;7.40;51.46;101702.84;4941268;28;97436;-78
2022/02/07 19:47:01;;;;;;;16.37;2.30;;;;;;;7.44;51.91;101699.31;4943811;28;97271;-80
2022/02/07 19:49:33;;;;;;;19.35;2.78;;;;;;;7.40;51.65;101710.75;4952536;28;97265;-80
2022/02/07 19:52:03;;;;;;;19.23;2.45;;;;;;;7.01;52.65;101717.13;4941871;28;99362;-79
2022/02/07 19:54:29;;;;;;;20.60;3.03;;;;;;;7.14;52.62;101725.81;4960231;22;98224;-77